Time;durP1;ratioP1;P1;durP2;ratioP2;P2;SDS_P1;SDS_P2;PMS_P1;PMS_P2;Temp;Humidity;BMP_temperature;BMP_pressure;BME280_temperature;BME280_humidity;BME280_pressure;Samples;Min_cycle;Max_cycle;Signal;HPM_P1;HPM_P2
2022/01/07 00:00:31;;;;;;;;;1.00;1.00;;;;;3.02;81.92;99898.44;5088273;28;9684;-55
2022/01/07 00:03:00;;;;;;;;;0.60;0.60;;;;;3.05;82.28;99907.94;5087115;28;8849;-55
2022/01/07 00:05:30;;;;;;;;;1.80;1.80;;;;;3.07;82.30;99895.56;5086558;28;8974;-55
2022/01/07 00:07:58;;;;;;;;;1.00;1.00;;;;;3.08;81.49;99898.13;5089691;28;9522;-55
2022/01/07 00:10:25;;;;;;;;;0.60;0.60;;;;;3.11;81.39;99895.34;5087861;28;8850;-56
2022/01/07 00:12:53;;;;;;;;;3.80;3.80;;;;;3.12;81.34;99886.53;5086941;28;8856;-56
2022/01/07 00:15:21;;;;;;;;;1.00;1.00;;;;;3.13;81.79;99885.59;5087745;28;8869;-55
2022/01/07 00:17:49;;;;;;;;;1.00;1.00;;;;;3.15;81.57;99881.13;5087613;28;8850;-55
2022/01/07 00:20:17;;;;;;;;;0.00;0.00;;;;;3.18;81.39;99880.94;5086827;28;8860;-55
2022/01/07 00:22:45;;;;;;;;;2.60;2.60;;;;;3.19;81.28;99872.13;5088170;28;8827;-55
2022/01/07 00:25:13;;;;;;;;;1.00;0.60;;;;;3.21;81.56;99858.91;5087613;28;8838;-55
2022/01/07 00:27:41;;;;;;;;;0.80;0.80;;;;;3.21;81.46;99857.13;5085409;28;8860;-55
2022/01/07 00:30:09;;;;;;;;;0.00;0.00;;;;;3.23;81.13;99860.53;5086864;28;8977;-56
2022/01/07 00:32:36;;;;;;;;;0.40;0.40;;;;;3.25;81.15;99849.94;5087195;28;8849;-55
2022/01/07 00:35:04;;;;;;;;;0.80;0.80;;;;;3.25;80.91;99845.50;5089314;28;8857;-55
2022/01/07 00:37:32;;;;;;;;;1.80;1.80;;;;;3.27;80.93;99833.13;5088175;28;9011;-56
2022/01/07 00:40:00;;;;;;;;;2.60;1.80;;;;;3.28;80.95;99832.22;5091013;28;8976;-55
2022/01/07 00:42:27;;;;;;;;;2.20;2.20;;;;;3.29;80.77;99831.28;5089886;28;8870;-55
2022/01/07 00:44:55;;;;;;;;;4.40;3.00;;;;;3.29;80.80;99828.66;5089719;28;8965;-55
2022/01/07 00:47:24;;;;;;;;;3.00;2.20;;;;;3.31;80.11;99826.78;5090077;28;8858;-55
2022/01/07 00:49:51;;;;;;;;;3.00;3.00;;;;;3.33;80.45;99826.72;5087024;28;8874;-56
2022/01/07 00:52:19;;;;;;;;;2.60;1.00;;;;;3.37;80.17;99821.19;5086329;28;8853;-55
2022/01/07 00:54:47;;;;;;;;;0.00;0.00;;;;;3.39;79.99;99811.44;5084667;28;8935;-56
2022/01/07 00:57:14;;;;;;;;;1.80;1.40;;;;;3.41;79.84;99803.47;5088322;28;8849;-55
2022/01/07 00:59:45;;;;;;;;;3.60;3.60;;;;;3.42;80.05;99808.63;5087751;28;8875;-56
2022/01/07 01:02:12;;;;;;;;;1.00;1.00;;;;;3.44;79.79;99798.03;5088748;28;8841;-56
2022/01/07 01:04:41;;;;;;;;;3.00;1.80;;;;;3.45;79.90;99805.84;5086378;28;8911;-55
2022/01/07 01:07:09;;;;;;;;;0.00;0.00;;;;;3.46;79.29;99804.06;5089241;28;9878;-55
2022/01/07 01:09:37;;;;;;;;;1.00;1.00;;;;;3.46;79.24;99791.75;5087666;28;8834;-55
2022/01/07 01:12:05;;;;;;;;;1.00;0.60;;;;;3.46;79.24;99783.88;5088365;28;8860;-55
2022/01/07 01:14:33;;;;;;;;;1.00;1.00;;;;;3.47;79.33;99782.94;5090218;28;8976;-55
2022/01/07 01:17:01;;;;;;;;;3.00;1.80;;;;;3.47;79.54;99788.19;5088829;28;8865;-55
2022/01/07 01:19:29;;;;;;;;;0.20;0.00;;;;;3.47;79.49;99777.66;5089151;28;8857;-55
2022/01/07 01:21:57;;;;;;;;;1.00;1.00;;;;;3.46;79.04;99775.09;5087783;28;8834;-56
2022/01/07 01:24:25;;;;;;;;;3.40;2.60;;;;;3.45;79.29;99769.00;5088771;28;8960;-55
2022/01/07 01:26:53;;;;;;;;;1.80;1.00;;;;;3.44;79.62;99772.59;5088075;28;8853;-55
2022/01/07 01:29:22;;;;;;;;;1.00;1.00;;;;;3.43;79.06;99762.13;5089145;28;8903;-55
2022/01/07 01:31:49;;;;;;;;;1.00;1.00;;;;;3.44;78.87;99763.81;5086796;28;8854;-56
2022/01/07 01:34:17;;;;;;;;;3.00;1.40;;;;;3.43;78.60;99767.38;5088747;28;9763;-55
2022/01/07 01:36:45;;;;;;;;;3.00;3.00;;;;;3.43;78.96;99763.00;5088909;28;8875;-55
2022/01/07 01:39:13;;;;;;;;;1.00;1.00;;;;;3.42;79.20;99758.63;5087805;28;8998;-56
2022/01/07 01:41:40;;;;;;;;;1.80;1.80;;;;;3.43;79.24;99760.34;5087131;28;8846;-55
2022/01/07 01:44:08;;;;;;;;;1.40;1.00;;;;;3.41;79.30;99770.09;5087341;28;9400;-55
2022/01/07 01:46:36;;;;;;;;;1.00;1.00;;;;;3.40;78.82;99757.03;5087430;28;8850;-56
2022/01/07 01:49:04;;;;;;;;;3.00;1.00;;;;;3.39;78.82;99757.97;5089251;28;8842;-55
2022/01/07 01:51:31;;;;;;;;;0.80;0.80;;;;;3.38;79.17;99754.47;5086820;28;8824;-56
2022/01/07 01:53:59;;;;;;;;;3.00;1.00;;;;;3.38;79.24;99743.97;5088191;28;8838;-55
2022/01/07 01:56:27;;;;;;;;;2.60;2.60;;;;;3.38;78.83;99741.31;5088763;28;9611;-55
2022/01/07 01:58:55;;;;;;;;;3.40;3.20;;;;;3.39;79.26;99731.66;5089425;28;9504;-55
2022/01/07 02:01:22;;;;;;;;;1.00;0.20;;;;;3.40;78.52;99738.63;5089760;28;9000;-55
2022/01/07 02:03:50;;;;;;;;;1.40;1.40;;;;;3.39;78.51;99735.13;5086840;28;8844;-55
2022/01/07 02:06:18;;;;;;;;;0.80;0.80;;;;;3.39;78.83;99729.03;5090566;28;8841;-55
2022/01/07 02:08:46;;;;;;;;;0.20;0.20;;;;;3.39;78.76;99727.22;5087462;28;9682;-55
2022/01/07 02:11:13;;;;;;;;;0.80;0.00;;;;;3.41;78.75;99729.78;5086627;28;8841;-56
2022/01/07 02:13:41;;;;;;;;;0.00;0.00;;;;;3.41;78.35;99720.09;5087787;28;8838;-56
2022/01/07 02:16:09;;;;;;;;;4.40;3.40;;;;;3.43;78.26;99710.38;5089041;28;9640;-55
2022/01/07 02:18:37;;;;;;;;;1.00;1.00;;;;;3.44;78.35;99708.56;5088898;28;8877;-55
2022/01/07 02:21:05;;;;;;;;;2.60;1.00;;;;;3.45;78.77;99716.38;5088181;28;8837;-55
2022/01/07 02:23:33;;;;;;;;;1.80;1.80;;;;;3.47;78.10;99709.25;5087553;28;8853;-56
2022/01/07 02:26:01;;;;;;;;;1.00;1.00;;;;;3.48;78.28;99702.22;5087939;28;8842;-55
2022/01/07 02:28:29;;;;;;;;;1.00;1.00;;;;;3.49;77.91;99699.47;5088782;28;9511;-55
2022/01/07 02:30:56;;;;;;;;;1.00;1.00;;;;;3.50;78.29;99689.81;5085887;28;8935;-56
2022/01/07 02:33:24;;;;;;;;;1.80;1.40;;;;;3.52;78.47;99691.44;5086425;28;8842;-56
2022/01/07 02:35:52;;;;;;;;;1.00;1.00;;;;;3.53;78.50;99687.00;5088890;28;8845;-55
2022/01/07 02:38:20;;;;;;;;;1.80;1.40;;;;;3.54;77.51;99688.72;5087721;28;8868;-56
2022/01/07 02:40:48;;;;;;;;;1.40;1.00;;;;;3.54;77.57;99675.56;5089093;28;9056;-55
2022/01/07 02:43:15;;;;;;;;;1.00;1.00;;;;;3.54;77.75;99671.13;5088090;28;8980;-55
2022/01/07 02:45:43;;;;;;;;;3.00;1.00;;;;;3.55;77.91;99664.09;5087953;28;8865;-55
2022/01/07 02:48:11;;;;;;;;;3.20;3.00;;;;;3.54;77.46;99655.34;5088166;28;8864;-56
2022/01/07 02:50:39;;;;;;;;;1.00;0.80;;;;;3.54;77.56;99652.72;5085680;28;8811;-56
2022/01/07 02:53:07;;;;;;;;;1.00;1.00;;;;;3.56;77.27;99635.03;5089024;28;8842;-55
2022/01/07 02:55:35;;;;;;;;;0.80;0.80;;;;;3.57;77.21;99660.41;5086778;28;8976;-56
2022/01/07 02:58:03;;;;;;;;;0.40;0.40;;;;;3.58;77.27;99648.97;5086631;28;10002;-55
2022/01/07 03:00:30;;;;;;;;;1.40;1.00;;;;;3.60;76.90;99646.25;5088153;28;8861;-56
2022/01/07 03:02:58;;;;;;;;;0.00;0.00;;;;;3.58;77.51;99648.13;5087833;28;9765;-56
2022/01/07 03:05:26;;;;;;;;;3.00;2.20;;;;;3.59;77.32;99650.69;5089407;28;8846;-56
2022/01/07 03:07:54;;;;;;;;;1.00;1.00;;;;;3.57;77.06;99646.44;5092489;28;9258;-57
2022/01/07 03:10:22;;;;;;;;;2.20;1.00;;;;;3.57;77.01;99649.06;5094232;28;8955;-55
2022/01/07 03:12:49;;;;;;;;;3.00;3.00;;;;;3.56;77.45;99629.78;5093060;28;8842;-56
2022/01/07 03:15:17;;;;;;;;;2.60;2.60;;;;;3.56;77.15;99632.41;5093212;28;8866;-56
2022/01/07 03:17:45;;;;;;;;;1.00;1.00;;;;;3.55;76.83;99635.97;5091983;28;8830;-55
2022/01/07 03:20:13;;;;;;;;;3.60;1.60;;;;;3.55;76.79;99620.19;5092295;28;8861;-56
2022/01/07 03:22:40;;;;;;;;;1.80;1.80;;;;;3.54;76.74;99620.28;5093002;28;8900;-56
2022/01/07 03:25:08;;;;;;;;;1.00;1.00;;;;;3.51;76.87;99623.94;5091961;28;8861;-56
2022/01/07 03:27:36;;;;;;;;;2.60;2.60;;;;;3.51;77.33;99609.91;5091922;28;8976;-56
2022/01/07 03:30:04;;;;;;;;;0.40;0.40;;;;;3.50;76.80;99613.50;5093240;28;8826;-56
2022/01/07 03:32:31;;;;;;;;;5.60;3.00;;;;;3.47;77.31;99614.50;5092810;28;9555;-55
2022/01/07 03:35:00;;;;;;;;;3.00;3.00;;;;;3.46;77.10;99604.06;5092477;28;8850;-56
2022/01/07 03:37:27;;;;;;;;;4.00;3.00;;;;;3.43;77.47;99599.84;5092364;28;8927;-56
2022/01/07 03:39:55;;;;;;;;;4.00;3.40;;;;;3.40;77.34;99613.16;5092679;28;8857;-55
2022/01/07 03:42:23;;;;;;;;;4.40;3.60;;;;;3.37;77.68;99600.19;5091688;28;8904;-55
2022/01/07 03:44:51;;;;;;;;;1.00;1.00;;;;;3.34;77.21;99589.81;5093769;28;8841;-55
2022/01/07 03:47:18;;;;;;;;;3.20;3.20;;;;;3.31;77.49;99592.63;5093042;28;8950;-56
2022/01/07 03:49:46;;;;;;;;;6.00;4.80;;;;;3.28;77.59;99586.69;5089661;28;8853;-55
2022/01/07 03:52:14;;;;;;;;;3.80;2.60;;;;;3.26;78.18;99591.19;5092585;28;8854;-56
2022/01/07 03:54:43;;;;;;;;;3.00;1.80;;;;;3.23;78.28;99578.19;5091546;28;8841;-55
2022/01/07 03:57:11;;;;;;;;;6.00;6.00;;;;;3.22;78.40;99587.03;5091376;28;8854;-56
2022/01/07 03:59:39;;;;;;;;;0.60;0.60;;;;;3.22;78.42;99566.84;5091412;28;9639;-56
2022/01/07 04:02:08;;;;;;;;;2.20;1.80;;;;;3.22;78.52;99568.59;5092102;28;8972;-56
2022/01/07 04:04:36;;;;;;;;;1.00;1.00;;;;;3.22;78.47;99571.22;5092583;28;8964;-56
2022/01/07 04:07:03;;;;;;;;;0.80;0.80;;;;;3.21;77.97;99565.16;5092074;28;8854;-56
2022/01/07 04:09:31;;;;;;;;;3.20;3.00;;;;;3.18;78.47;99565.28;5092679;28;8842;-55
2022/01/07 04:11:59;;;;;;;;;5.80;4.40;;;;;3.12;78.41;99552.50;5093009;28;8853;-55
2022/01/07 04:14:26;;;;;;;;;5.20;4.40;;;;;3.07;78.53;99546.66;5092423;28;8846;-55
2022/01/07 04:16:55;;;;;;;;;4.00;3.00;;;;;3.03;78.78;99537.22;5092086;28;9694;-56
2022/01/07 04:19:23;;;;;;;;;3.00;3.00;;;;;3.00;78.70;99533.91;5091550;28;8968;-56
2022/01/07 04:21:52;;;;;;;;;0.00;0.00;;;;;2.97;79.60;99531.47;5092190;28;8841;-55
2022/01/07 04:24:20;;;;;;;;;5.20;4.40;;;;;2.91;79.64;99521.28;5091425;28;8854;-56
2022/01/07 04:26:48;;;;;;;;;2.00;1.80;;;;;2.88;80.03;99526.72;5091760;28;8834;-56
2022/01/07 04:29:15;;;;;;;;;0.40;0.40;;;;;2.84;80.13;99515.53;5091465;28;8842;-56
2022/01/07 04:31:43;;;;;;;;;0.20;0.20;;;;;2.83;80.13;99499.84;5092167;28;8864;-55
2022/01/07 04:34:11;;;;;;;;;1.00;1.00;;;;;2.81;80.28;99510.41;5091963;28;9180;-56
2022/01/07 04:36:39;;;;;;;;;3.60;3.60;;;;;2.79;80.07;99517.56;5091464;28;8968;-56
2022/01/07 04:39:06;;;;;;;;;0.80;0.80;;;;;2.75;80.27;99513.41;5091308;28;8935;-55
2022/01/07 04:41:34;;;;;;;;;1.60;1.40;;;;;2.68;80.81;99504.16;5092049;28;8850;-56
2022/01/07 04:44:02;;;;;;;;;1.80;1.00;;;;;2.64;80.81;99520.19;5092093;28;8841;-55
2022/01/07 04:46:30;;;;;;;;;4.00;4.00;;;;;2.59;81.28;99499.38;5091466;28;8934;-55
2022/01/07 04:48:57;;;;;;;;;1.00;1.00;;;;;2.59;81.07;99502.00;5090469;28;8837;-55
2022/01/07 04:51:25;;;;;;;;;1.00;1.00;;;;;2.58;81.66;99491.63;5091447;28;8846;-56
2022/01/07 04:53:53;;;;;;;;;3.00;3.00;;;;;2.59;81.80;99502.00;5090941;28;8845;-56
2022/01/07 04:56:21;;;;;;;;;4.00;3.80;;;;;2.60;81.54;99506.38;5091381;28;8957;-55
2022/01/07 04:58:49;;;;;;;;;3.00;3.00;;;;;2.61;82.09;99505.44;5090554;28;8845;-55
2022/01/07 05:01:16;;;;;;;;;0.00;0.00;;;;;2.65;81.77;99493.81;5091411;28;8846;-56
2022/01/07 05:03:44;;;;;;;;;0.80;0.80;;;;;2.68;81.49;99500.69;5091457;28;8865;-56
2022/01/07 05:06:44;;;;;;;;;0.40;0.40;;;;;2.71;81.81;99495.25;5090677;28;8922;-56
2022/01/07 05:09:00;;;;;;;;;2.60;2.20;;;;;2.74;81.48;99495.09;5090190;28;8950;-56
2022/01/07 05:11:28;;;;;;;;;0.20;0.20;;;;;2.76;81.75;99504.59;5090117;28;8845;-56
2022/01/07 05:13:56;;;;;;;;;0.80;0.00;;;;;2.79;81.67;99488.63;5088840;28;8915;-55
2022/01/07 05:16:26;;;;;;;;;2.80;2.60;;;;;2.82;81.99;99483.22;5089078;28;8873;-56
2022/01/07 05:18:54;;;;;;;;;3.00;3.00;;;;;2.84;81.88;99486.63;5089089;28;8822;-56
2022/01/07 05:21:21;;;;;;;;;3.00;3.00;;;;;2.84;81.45;99468.22;5091162;28;8846;-56
2022/01/07 05:23:49;;;;;;;;;1.00;1.00;;;;;2.85;81.67;99482.19;5090003;28;8976;-56
2022/01/07 05:26:17;;;;;;;;;4.00;3.40;;;;;2.86;81.93;99482.09;5090692;28;8850;-56
2022/01/07 05:28:45;;;;;;;;;1.80;1.80;;;;;2.89;81.70;99484.56;5089379;28;8862;-56
2022/01/07 05:31:12;;;;;;;;;1.40;1.00;;;;;2.93;81.87;99461.56;5090977;28;8841;-56
2022/01/07 05:33:40;;;;;;;;;3.00;3.00;;;;;2.99;81.56;99482.25;5090133;28;8846;-56
2022/01/07 05:36:08;;;;;;;;;0.00;0.00;;;;;3.04;81.49;99467.91;5089932;28;8849;-56
2022/01/07 05:38:36;;;;;;;;;0.00;0.00;;;;;3.07;81.20;99451.97;5090054;28;8862;-56
2022/01/07 05:41:03;;;;;;;;;0.20;0.00;;;;;3.10;81.23;99459.69;5090522;28;8884;-56
2022/01/07 05:43:31;;;;;;;;;2.60;2.60;;;;;3.13;81.20;99466.56;5088554;28;8841;-56
2022/01/07 05:45:59;;;;;;;;;2.60;2.60;;;;;3.15;81.16;99460.28;5089189;28;8853;-55
2022/01/07 05:48:27;;;;;;;;;1.00;0.40;;;;;3.16;81.01;99459.34;5088314;28;8841;-55
2022/01/07 05:50:54;;;;;;;;;0.00;0.00;;;;;3.17;80.52;99466.28;5087417;28;8846;-56
2022/01/07 05:53:22;;;;;;;;;2.20;2.20;;;;;3.17;80.55;99450.50;5088454;28;8826;-56
2022/01/07 05:55:50;;;;;;;;;1.00;0.60;;;;;3.20;80.33;99449.50;5089485;28;8830;-56
2022/01/07 05:58:18;;;;;;;;;0.80;0.80;;;;;3.20;80.85;99460.00;5088744;28;8854;-56
2022/01/07 06:00:45;;;;;;;;;4.40;3.00;;;;;3.20;80.55;99455.59;5087606;28;8864;-56
2022/01/07 06:03:13;;;;;;;;;3.00;3.00;;;;;3.20;80.57;99458.25;5088898;28;8838;-56
2022/01/07 06:05:41;;;;;;;;;3.00;3.00;;;;;3.21;81.05;99449.41;5088315;28;8854;-56
2022/01/07 06:08:09;;;;;;;;;1.80;1.80;;;;;3.22;80.26;99445.84;5088689;28;8866;-56
2022/01/07 06:10:37;;;;;;;;;0.60;0.60;;;;;3.24;80.28;99445.75;5087827;28;8893;-56
2022/01/07 06:13:04;;;;;;;;;2.60;2.20;;;;;3.24;80.26;99443.97;5088495;28;8858;-56
2022/01/07 06:15:32;;;;;;;;;0.80;0.40;;;;;3.25;80.57;99443.00;5088301;28;8834;-56
2022/01/07 06:18:00;;;;;;;;;2.20;2.20;;;;;3.26;80.79;99444.72;5088266;28;9196;-56
2022/01/07 06:20:28;;;;;;;;;3.00;1.00;;;;;3.26;80.17;99425.47;5087396;28;8862;-56
2022/01/07 06:22:56;;;;;;;;;3.60;3.60;;;;;3.27;80.55;99433.25;5088256;28;8854;-56
2022/01/07 06:25:24;;;;;;;;;4.40;3.00;;;;;3.28;79.96;99439.38;5089437;28;8850;-56
2022/01/07 06:27:51;;;;;;;;;2.00;1.80;;;;;3.29;80.06;99430.53;5088825;28;9523;-56
2022/01/07 06:30:19;;;;;;;;;0.80;0.80;;;;;3.28;79.98;99434.97;5086481;28;8867;-57
2022/01/07 06:32:47;;;;;;;;;0.00;0.00;;;;;3.28;80.51;99434.09;5087203;28;8854;-56
2022/01/07 06:35:14;;;;;;;;;1.00;1.00;;;;;3.26;80.55;99422.84;5086558;28;8845;-56
2022/01/07 06:37:42;;;;;;;;;2.20;1.00;;;;;3.21;80.72;99412.59;5087705;28;8866;-56
2022/01/07 06:40:10;;;;;;;;;2.20;0.80;;;;;3.17;80.33;99411.06;5087770;28;8846;-55
2022/01/07 06:42:37;;;;;;;;;2.60;2.60;;;;;3.11;80.79;99435.06;5089793;28;8858;-56
2022/01/07 06:45:06;;;;;;;;;1.00;1.00;;;;;3.07;80.69;99425.69;5092516;28;8873;-56
2022/01/07 06:47:33;;;;;;;;;2.20;2.20;;;;;3.06;80.78;99434.50;5091403;28;8850;-56
2022/01/07 06:50:01;;;;;;;;;2.20;2.20;;;;;3.03;80.62;99434.66;5090339;28;8840;-57
2022/01/07 06:52:29;;;;;;;;;1.00;1.00;;;;;3.00;81.39;99439.25;5092009;28;8846;-56
2022/01/07 06:54:57;;;;;;;;;1.40;1.40;;;;;2.96;81.64;99443.84;5088741;28;8864;-55
2022/01/07 06:57:25;;;;;;;;;1.00;1.00;;;;;2.84;81.23;99426.16;5090475;28;8996;-56
2022/01/07 06:59:53;;;;;;;;;3.00;3.00;;;;;2.73;82.22;99427.69;5089330;28;8842;-56
2022/01/07 07:02:21;;;;;;;;;1.00;1.00;;;;;2.64;82.45;99430.84;5089086;28;9581;-57
2022/01/07 07:04:49;;;;;;;;;3.40;3.00;;;;;2.60;82.55;99440.69;5089689;28;8862;-56
2022/01/07 07:07:16;;;;;;;;;1.80;1.80;;;;;2.57;83.06;99446.09;5089602;28;8845;-56
2022/01/07 07:09:44;;;;;;;;;1.40;1.40;;;;;2.56;83.00;99443.56;5089319;28;8928;-56
2022/01/07 07:12:13;;;;;;;;;3.60;3.60;;;;;2.58;83.41;99449.56;5088657;28;8856;-56
2022/01/07 07:14:41;;;;;;;;;0.00;0.00;;;;;2.58;82.69;99447.78;5091079;28;8909;-55
2022/01/07 07:17:10;;;;;;;;;1.00;1.00;;;;;2.59;83.28;99459.97;5088819;28;9612;-56
2022/01/07 07:19:38;;;;;;;;;3.00;1.00;;;;;2.61;83.02;99452.88;5089005;28;8852;-56
2022/01/07 07:22:06;;;;;;;;;3.00;1.00;;;;;2.64;82.83;99459.75;5090861;28;9083;-56
2022/01/07 07:24:34;;;;;;;;;3.00;3.00;;;;;2.66;83.38;99455.25;5089217;28;8859;-55
2022/01/07 07:27:02;;;;;;;;;4.00;3.80;;;;;2.66;83.14;99453.44;5088299;28;8842;-56
2022/01/07 07:29:30;;;;;;;;;1.40;1.40;;;;;2.69;83.27;99450.66;5087647;28;8970;-56
2022/01/07 07:31:59;;;;;;;;;1.80;1.00;;;;;2.69;82.54;99442.78;5089656;28;8845;-56
2022/01/07 07:34:56;;;;;;;;;3.00;3.00;;;;;2.71;83.33;99454.06;5088521;28;8946;-57
2022/01/07 07:37:23;;;;;;;;;1.00;1.00;;;;;2.73;82.98;99446.91;5088960;28;9512;-56
2022/01/07 07:39:51;;;;;;;;;1.40;1.40;;;;;2.74;83.40;99459.13;5088571;28;8988;-55
2022/01/07 07:42:19;;;;;;;;;2.60;2.60;;;;;2.75;82.86;99438.97;5088263;28;8858;-55
2022/01/07 07:44:47;;;;;;;;;1.00;1.00;;;;;2.77;83.44;99431.81;5088107;28;8944;-56
2022/01/07 07:47:14;;;;;;;;;2.60;1.00;;;;;2.81;83.19;99443.88;5086256;28;8846;-56
2022/01/07 07:49:42;;;;;;;;;2.60;2.60;;;;;2.83;83.28;99448.13;5086639;28;8840;-56
2022/01/07 07:52:10;;;;;;;;;3.40;2.60;;;;;2.89;83.36;99457.44;5086208;28;9496;-56
2022/01/07 07:54:38;;;;;;;;;0.80;0.80;;;;;2.93;83.23;99457.19;5088263;28;8846;-56
2022/01/07 07:57:06;;;;;;;;;2.20;1.80;;;;;2.96;83.12;99464.88;5088000;28;9621;-56
2022/01/07 07:59:34;;;;;;;;;3.40;3.40;;;;;3.00;82.90;99460.28;5083490;28;8842;-56
2022/01/07 08:02:02;;;;;;;;;1.00;0.00;;;;;3.05;82.97;99459.13;5085997;28;8858;-56
2022/01/07 08:04:30;;;;;;;;;4.00;3.20;;;;;3.08;83.08;99458.06;5086286;28;8850;-56
2022/01/07 08:06:58;;;;;;;;;2.20;1.00;;;;;3.10;83.09;99462.31;5086396;28;9757;-56
2022/01/07 08:09:26;;;;;;;;;2.20;2.20;;;;;3.13;82.82;99456.91;5086530;28;9545;-55
2022/01/07 08:12:04;;;;;;;;;1.00;0.60;;;;;3.15;82.75;99441.88;5086777;28;8842;-56
2022/01/07 08:17:16;;;;;;;;;1.00;1.00;;;;;3.19;82.77;99451.25;5054627;28;8980;-55
2022/01/07 08:19:47;;;;;;;;;3.00;2.60;;;;;3.21;82.79;99459.06;5083603;28;8965;-56
2022/01/07 08:22:15;;;;;;;;;0.60;0.60;;;;;3.21;82.64;99441.53;5085313;28;8854;-56
2022/01/07 08:24:42;;;;;;;;;1.40;1.00;;;;;3.22;82.79;99437.94;5084974;28;8846;-56
2022/01/07 08:27:10;;;;;;;;;0.80;0.60;;;;;3.24;82.55;99443.97;5084598;28;8895;-55
2022/01/07 08:29:59;;;;;;;;;1.00;1.00;;;;;3.27;82.84;99437.69;5084392;28;8864;-56
2022/01/07 08:35:12;;;;;;;;;4.00;4.00;;;;;3.33;82.52;99437.31;5086334;28;8895;-56
2022/01/07 08:37:40;;;;;;;;;3.40;3.40;;;;;3.35;82.42;99428.41;5086410;28;8865;-56
2022/01/07 08:40:08;;;;;;;;;1.80;1.00;;;;;3.38;81.95;99425.59;5083835;28;9111;-56
2022/01/07 08:42:36;;;;;;;;;3.80;3.60;;;;;3.41;82.25;99438.53;5083176;28;8842;-56
2022/01/07 08:45:03;;;;;;;;;1.00;0.60;;;;;3.43;82.59;99443.72;5084375;28;8862;-55
2022/01/07 08:47:31;;;;;;;;;0.60;0.60;;;;;3.45;81.98;99444.47;5085502;28;8858;-56
2022/01/07 08:49:59;;;;;;;;;5.20;3.80;;;;;3.47;82.44;99446.09;5080865;28;8848;-56
2022/01/07 08:52:27;;;;;;;;;1.00;1.00;;;;;3.50;82.35;99448.56;5081363;28;8842;-56
2022/01/07 08:54:55;;;;;;;;;1.00;1.00;;;;;3.51;81.75;99447.63;5083328;28;8850;-56
2022/01/07 08:57:23;;;;;;;;;3.00;1.40;;;;;3.51;81.69;99458.16;5085657;28;8922;-56
2022/01/07 08:59:51;;;;;;;;;0.00;0.00;;;;;3.53;82.14;99451.00;5084965;28;8849;-56
2022/01/07 09:02:19;;;;;;;;;1.00;1.00;;;;;3.53;81.44;99450.13;5083176;28;8988;-56
2022/01/07 09:04:48;;;;;;;;;3.80;3.00;;;;;3.52;82.22;99444.03;5081594;28;8865;-56
2022/01/07 09:07:15;;;;;;;;;1.00;1.00;;;;;3.54;82.10;99449.22;5084736;28;8830;-55
2022/01/07 09:09:43;;;;;;;;;1.20;0.80;;;;;3.53;81.99;99445.72;5084287;28;8834;-57
2022/01/07 09:12:12;;;;;;;;;2.20;2.20;;;;;3.54;82.22;99438.69;5082958;28;8853;-56
2022/01/07 09:14:40;;;;;;;;;2.60;2.60;;;;;3.56;81.61;99442.91;5082196;28;8849;-56
2022/01/07 09:17:07;;;;;;;;;0.40;0.40;;;;;3.58;82.22;99432.31;5084885;28;8947;-56
2022/01/07 09:19:35;;;;;;;;;3.00;3.00;;;;;3.59;81.43;99432.22;5081610;28;8860;-56
2022/01/07 09:22:04;;;;;;;;;3.40;3.40;;;;;3.62;81.66;99444.34;5081486;28;8849;-56
2022/01/07 09:24:31;;;;;;;;;0.20;0.20;;;;;3.62;81.92;99432.03;5082256;28;8854;-55
2022/01/07 09:26:59;;;;;;;;;3.00;3.00;;;;;3.64;81.64;99432.75;5082757;28;8842;-56
2022/01/07 09:29:27;;;;;;;;;3.00;1.80;;;;;3.65;81.49;99431.00;5085620;28;8860;-55
2022/01/07 09:31:55;;;;;;;;;0.00;0.00;;;;;3.66;81.39;99432.69;5082616;28;8858;-55
2022/01/07 09:34:24;;;;;;;;;6.60;5.60;;;;;3.67;81.49;99432.59;5082159;28;8919;-55
2022/01/07 09:36:56;;;;;;;;;3.00;3.00;;;;;3.69;81.85;99435.97;5080649;28;9524;-56
2022/01/07 09:39:24;;;;;;;;;1.40;0.60;;;;;3.69;81.63;99435.97;5081648;28;8838;-56
2022/01/07 09:41:52;;;;;;;;;2.20;1.80;;;;;3.70;81.29;99437.66;5081243;28;8878;-56
2022/01/07 09:44:20;;;;;;;;;1.40;1.00;;;;;3.69;81.40;99432.53;5081629;28;8879;-56
2022/01/07 09:46:48;;;;;;;;;2.60;1.00;;;;;3.66;82.01;99433.53;5081279;28;8830;-56
2022/01/07 09:49:15;;;;;;;;;1.80;1.80;;;;;3.66;81.78;99417.75;5081521;28;8872;-55
2022/01/07 09:51:43;;;;;;;;;6.00;4.40;;;;;3.74;81.40;99418.13;5078576;28;8972;-56
2022/01/07 09:54:11;;;;;;;;;2.60;2.60;;;;;3.83;81.68;99420.19;5080597;28;9271;-56
2022/01/07 09:56:39;;;;;;;;;1.00;1.00;;;;;3.89;81.62;99422.47;5081902;28;8866;-56
2022/01/07 09:59:07;;;;;;;;;1.80;1.80;;;;;3.91;81.48;99425.84;5082916;28;8869;-56
2022/01/07 10:01:35;;;;;;;;;1.40;1.40;;;;;3.95;81.10;99432.63;5082466;28;8857;-56
2022/01/07 10:04:03;;;;;;;;;1.80;1.80;;;;;3.98;81.17;99437.72;5079333;28;8867;-56
2022/01/07 10:06:31;;;;;;;;;1.00;1.00;;;;;4.00;81.40;99417.38;5080750;28;8976;-56
2022/01/07 10:09:18;;;;;;;;;4.00;4.00;;;;;4.04;81.28;99432.06;5080224;28;8862;-56
2022/01/07 10:11:51;;;;;;;;;3.00;1.40;;;;;4.07;81.56;99423.97;5081653;28;8838;-55
2022/01/07 10:14:21;;;;;;;;;3.00;1.40;;;;;4.11;81.39;99434.22;5079823;28;8860;-57
2022/01/07 10:16:49;;;;;;;;;3.40;3.00;;;;;4.12;81.01;99435.06;5081581;28;8846;-56
2022/01/07 10:19:17;;;;;;;;;1.00;0.80;;;;;4.13;81.24;99428.84;5083286;28;8868;-56
2022/01/07 10:21:45;;;;;;;;;0.20;0.20;;;;;4.13;80.86;99426.22;5083479;28;8842;-56
2022/01/07 10:24:13;;;;;;;;;3.00;2.60;;;;;4.13;80.86;99408.63;5083128;28;8951;-55
2022/01/07 10:26:40;;;;;;;;;3.60;3.60;;;;;4.18;81.07;99398.66;5082124;28;8826;-56
2022/01/07 10:29:08;;;;;;;;;2.60;2.60;;;;;4.24;80.89;99395.63;5081319;28;8845;-56
2022/01/07 10:31:36;;;;;;;;;3.80;3.60;;;;;4.32;80.37;99393.38;5081048;28;8854;-56
2022/01/07 10:34:04;;;;;;;;;3.00;1.00;;;;;4.40;80.47;99390.25;5079355;28;8919;-56
2022/01/07 10:36:32;;;;;;;;;3.00;3.00;;;;;4.48;80.07;99387.97;5081929;28;8856;-56
2022/01/07 10:39:04;;;;;;;;;4.00;4.00;;;;;4.57;80.13;99385.56;5081723;28;8869;-56
2022/01/07 10:41:32;;;;;;;;;2.20;2.20;;;;;4.62;79.98;99385.28;5080758;28;8846;-56
2022/01/07 10:44:01;;;;;;;;;1.40;1.40;;;;;4.62;80.41;99377.38;5078545;28;8870;-56
2022/01/07 10:46:30;;;;;;;;;3.00;3.00;;;;;4.63;79.83;99376.44;5081344;28;8842;-55
2022/01/07 10:48:58;;;;;;;;;1.80;1.80;;;;;4.61;80.31;99380.94;5082597;28;8846;-56
2022/01/07 10:51:31;;;;;;;;;4.00;4.00;;;;;4.62;80.52;99387.91;5084181;28;8896;-56
2022/01/07 10:53:59;;;;;;;;;1.40;1.00;;;;;4.65;80.33;99387.72;5080623;28;8858;-56
2022/01/07 10:56:27;;;;;;;;;3.00;2.60;;;;;4.71;80.29;99388.16;5077231;28;9213;-56
2022/01/07 10:58:56;;;;;;;;;1.80;1.00;;;;;4.74;79.92;99392.41;5079964;28;8962;-56
2022/01/07 11:01:24;;;;;;;;;5.20;1.00;;;;;4.76;80.21;99390.50;5078851;28;8845;-56
2022/01/07 11:03:51;;;;;;;;;3.00;3.00;;;;;4.76;80.01;99379.97;5079132;28;8947;-56
2022/01/07 11:06:19;;;;;;;;;1.80;1.80;;;;;4.76;79.67;99377.31;5080761;28;9585;-56
2022/01/07 11:08:47;;;;;;;;;1.00;0.00;;;;;4.75;80.01;99373.00;5081239;28;9003;-56
2022/01/07 11:11:15;;;;;;;;;2.80;2.80;;;;;4.76;79.95;99372.03;5078291;28;8873;-56
2022/01/07 11:13:43;;;;;;;;;3.00;3.00;;;;;4.76;79.84;99369.41;5082891;28;8853;-56
2022/01/07 11:16:10;;;;;;;;;3.00;3.00;;;;;4.79;79.70;99371.88;5080781;28;8872;-56
2022/01/07 11:18:38;;;;;;;;;3.40;2.60;;;;;4.82;79.47;99369.88;5077974;28;8850;-56
2022/01/07 11:21:06;;;;;;;;;0.40;0.40;;;;;4.89;79.52;99370.31;5078932;28;8857;-56
2022/01/07 11:23:37;;;;;;;;;0.20;0.20;;;;;5.01;79.42;99353.69;5080340;28;8854;-56
2022/01/07 11:26:04;;;;;;;;;2.80;2.80;;;;;5.16;79.42;99360.56;5078237;28;8872;-56
2022/01/07 11:28:32;;;;;;;;;0.00;0.00;;;;;5.22;79.06;99353.06;5081843;28;8850;-56
2022/01/07 11:31:00;;;;;;;;;3.00;3.00;;;;;5.19;78.84;99358.56;5080427;28;8877;-56
2022/01/07 11:33:29;;;;;;;;;3.20;3.00;;;;;5.15;79.01;99359.72;5081191;28;8853;-56
2022/01/07 11:35:57;;;;;;;;;0.00;0.00;;;;;5.13;79.14;99358.97;5082279;28;9578;-56
2022/01/07 11:38:25;;;;;;;;;1.40;1.40;;;;;5.14;78.73;99354.53;5081398;28;9340;-56
2022/01/07 11:40:53;;;;;;;;;0.00;0.00;;;;;5.11;78.97;99347.69;5081490;28;8865;-56
2022/01/07 11:43:23;;;;;;;;;5.60;5.60;;;;;5.09;78.88;99348.75;5082265;28;8838;-56
2022/01/07 11:45:51;;;;;;;;;0.60;0.60;;;;;5.03;78.95;99346.50;5083610;28;8846;-56
2022/01/07 11:48:20;;;;;;;;;2.60;2.60;;;;;5.03;79.08;99349.13;5082932;28;8857;-56
2022/01/07 11:50:48;;;;;;;;;4.00;3.60;;;;;5.01;79.26;99349.22;5084499;28;8856;-57
2022/01/07 11:53:15;;;;;;;;;3.40;3.40;;;;;4.98;78.71;99359.13;5084069;28;8858;-56
2022/01/07 11:55:43;;;;;;;;;3.00;3.00;;;;;4.94;79.06;99353.22;5082513;28;8849;-56
2022/01/07 11:58:11;;;;;;;;;1.00;1.00;;;;;4.91;79.41;99352.56;5082910;28;8846;-56
2022/01/07 12:00:39;;;;;;;;;3.20;3.20;;;;;4.90;79.50;99348.25;5083122;28;8862;-56